Time;durP1;ratioP1;P1;durP2;ratioP2;P2;SDS_P1;SDS_P2;PMS_P1;PMS_P2;Temp;Humidity;BMP_temperature;BMP_pressure;BME280_temperature;BME280_humidity;BME280_pressure;Samples;Min_cycle;Max_cycle;Signal;HPM_P1;HPM_P2
2021/05/21 00:00:23;;;;;;;11.68;9.50;;;;;;;;;;5015010;28;20018;-71
2021/05/21 00:02:49;;;;;;;11.07;9.82;;;;;;;;;;5015165;28;20025;-72
2021/05/21 00:05:16;;;;;;;11.88;10.45;;;;;;;;;;5015219;28;20084;-71
2021/05/21 00:07:42;;;;;;;9.98;9.05;;;;;;;;;;5014820;28;20635;-72
2021/05/21 00:10:08;;;;;;;10.68;9.63;;;;;;;;;;5014655;28;20038;-72
2021/05/21 00:12:34;;;;;;;11.73;10.52;;;;;;;;;;5014832;28;20125;-72
2021/05/21 00:15:00;;;;;;;11.68;9.40;;;;;;;;;;5014987;28;20022;-72
2021/05/21 00:17:26;;;;;;;11.75;10.30;;;;;;;;;;5015079;28;20034;-71
2021/05/21 00:19:52;;;;;;;12.25;11.05;;;;;;;;;;5014656;28;20113;-72
2021/05/21 00:22:18;;;;;;;11.77;10.60;;;;;;;;;;5014269;28;20030;-72
2021/05/21 00:24:44;;;;;;;11.25;10.15;;;;;;;;;;5014779;28;20399;-72
2021/05/21 00:27:10;;;;;;;10.38;9.30;;;;;;;;;;5014744;28;20034;-71
2021/05/21 00:29:36;;;;;;;10.98;9.50;;;;;;;;;;5014535;28;20022;-71
2021/05/21 00:32:03;;;;;;;10.18;9.20;;;;;;;;;;5014646;28;20033;-72
2021/05/21 00:34:29;;;;;;;12.18;8.93;;;;;;;;;;5014644;28;20100;-72
2021/05/21 00:36:55;;;;;;;13.82;10.88;;;;;;;;;;5014696;28;20026;-72
2021/05/21 00:39:21;;;;;;;10.13;9.10;;;;;;;;;;5014335;28;20093;-72
2021/05/21 00:41:47;;;;;;;10.57;9.50;;;;;;;;;;5014159;28;20040;-72
2021/05/21 00:44:13;;;;;;;11.15;9.55;;;;;;;;;;5014338;28;20057;-72
2021/05/21 00:46:39;;;;;;;14.25;10.45;;;;;;;;;;5014126;28;20068;-72
2021/05/21 00:49:06;;;;;;;12.55;10.15;;;;;;;;;;5014583;28;20468;-71
2021/05/21 00:51:32;;;;;;;12.48;11.00;;;;;;;;;;5013857;28;20431;-71
2021/05/21 00:53:59;;;;;;;13.20;10.55;;;;;;;;;;5013662;28;20092;-72
2021/05/21 00:56:25;;;;;;;11.07;9.90;;;;;;;;;;5013644;28;20057;-72
2021/05/21 00:58:51;;;;;;;12.13;9.95;;;;;;;;;;5014153;28;20026;-72
2021/05/21 01:01:17;;;;;;;11.68;9.80;;;;;;;;;;5013970;28;20099;-72
2021/05/21 01:03:43;;;;;;;10.95;9.77;;;;;;;;;;5014116;28;20038;-71
2021/05/21 01:06:11;;;;;;;20.70;10.63;;;;;;;;;;5013773;28;20442;-72
2021/05/21 01:08:37;;;;;;;10.95;9.80;;;;;;;;;;5013854;28;20060;-71
2021/05/21 01:11:04;;;;;;;11.73;10.57;;;;;;;;;;5013512;28;20515;-72
2021/05/21 01:13:30;;;;;;;13.10;10.85;;;;;;;;;;5013780;28;20026;-72
2021/05/21 01:15:56;;;;;;;11.98;10.77;;;;;;;;;;5014002;28;20101;-71
2021/05/21 01:18:23;;;;;;;11.57;10.10;;;;;;;;;;5013768;28;20030;-72
2021/05/21 01:20:49;;;;;;;10.75;9.75;;;;;;;;;;5013217;28;20357;-71
2021/05/21 01:23:15;;;;;;;11.05;9.95;;;;;;;;;;5014022;28;20026;-71
2021/05/21 01:25:41;;;;;;;11.38;10.27;;;;;;;;;;5013532;28;20021;-71
2021/05/21 01:28:07;;;;;;;10.98;9.93;;;;;;;;;;5013263;28;20065;-72
2021/05/21 01:30:33;;;;;;;11.02;9.98;;;;;;;;;;5013673;28;20471;-72
2021/05/21 01:33:05;;;;;;;12.50;10.55;;;;;;;;;;5013681;28;20080;-72
2021/05/21 01:35:31;;;;;;;11.20;10.10;;;;;;;;;;5013942;28;20026;-72
2021/05/21 01:37:57;;;;;;;10.75;9.60;;;;;;;;;;5012939;28;20093;-72
2021/05/21 01:40:23;;;;;;;11.02;9.93;;;;;;;;;;5013792;28;20387;-72
2021/05/21 01:42:49;;;;;;;10.80;9.40;;;;;;;;;;5013674;28;20397;-71
2021/05/21 01:45:15;;;;;;;12.23;10.93;;;;;;;;;;5013417;28;20025;-71
2021/05/21 01:47:41;;;;;;;11.88;10.52;;;;;;;;;;5013496;28;20452;-72
2021/05/21 01:50:10;;;;;;;11.80;10.10;;;;;;;;;;5012909;28;20025;-72
2021/05/21 01:52:37;;;;;;;12.02;9.57;;;;;;;;;;5013057;28;20033;-72
2021/05/21 01:55:03;;;;;;;13.60;10.02;;;;;;;;;;5013410;28;20438;-72
2021/05/21 01:57:29;;;;;;;11.63;10.13;;;;;;;;;;5013322;28;20030;-72
2021/05/21 01:59:55;;;;;;;10.13;9.13;;;;;;;;;;5013877;28;20068;-72
2021/05/21 02:02:22;;;;;;;10.63;9.52;;;;;;;;;;5016881;28;20037;-72
2021/05/21 02:04:48;;;;;;;11.38;10.27;;;;;;;;;;5017444;28;20562;-72
2021/05/21 02:07:14;;;;;;;11.25;10.18;;;;;;;;;;5016847;28;20022;-72
2021/05/21 02:09:54;;;;;;;12.23;10.07;;;;;;;;;;5017050;28;20041;-71
2021/05/21 02:12:20;;;;;;;11.32;10.15;;;;;;;;;;5016433;28;20054;-71
2021/05/21 02:14:46;;;;;;;10.05;8.95;;;;;;;;;;5017108;28;20105;-72
2021/05/21 02:17:12;;;;;;;11.43;9.02;;;;;;;;;;5017073;28;20026;-71
2021/05/21 02:19:38;;;;;;;10.88;9.75;;;;;;;;;;5017035;28;20030;-72
2021/05/21 02:22:04;;;;;;;11.60;9.55;;;;;;;;;;5016806;28;20030;-72
2021/05/21 02:24:30;;;;;;;10.07;9.13;;;;;;;;;;5016949;28;20033;-70
2021/05/21 02:26:56;;;;;;;11.63;10.05;;;;;;;;;;5017533;28;20030;-71
2021/05/21 02:29:22;;;;;;;10.30;8.98;;;;;;;;;;5016830;28;20029;-71
2021/05/21 02:31:48;;;;;;;9.57;8.68;;;;;;;;;;5016814;28;20483;-71
2021/05/21 02:34:14;;;;;;;10.02;8.88;;;;;;;;;;5016723;28;20038;-71
2021/05/21 02:36:40;;;;;;;13.05;9.63;;;;;;;;;;5016834;28;20029;-71
2021/05/21 02:39:06;;;;;;;9.68;8.70;;;;;;;;;;5016462;28;20035;-74
2021/05/21 02:41:33;;;;;;;9.70;8.73;;;;;;;;;;5016654;28;20021;-72
2021/05/21 02:43:59;;;;;;;12.73;8.75;;;;;;;;;;5016250;28;20048;-72
2021/05/21 02:46:25;;;;;;;10.27;9.27;;;;;;;;;;5016701;28;20036;-71
2021/05/21 02:48:51;;;;;;;12.90;9.63;;;;;;;;;;5016677;28;20033;-71
2021/05/21 02:51:17;;;;;;;9.82;8.82;;;;;;;;;;5016013;28;20037;-72
2021/05/21 02:53:43;;;;;;;10.65;9.55;;;;;;;;;;5016994;28;20034;-72
2021/05/21 02:56:09;;;;;;;10.45;9.48;;;;;;;;;;5015912;28;20034;-72
2021/05/21 02:58:35;;;;;;;9.23;8.38;;;;;;;;;;5016266;28;20482;-72
2021/05/21 03:01:01;;;;;;;9.95;8.82;;;;;;;;;;5016303;28;20029;-72
2021/05/21 03:03:27;;;;;;;9.60;8.65;;;;;;;;;;5015951;28;20437;-72
2021/05/21 03:05:55;;;;;;;11.10;10.10;;;;;;;;;;5016036;28;20028;-72
2021/05/21 03:08:21;;;;;;;11.27;9.52;;;;;;;;;;5015810;28;20030;-72
2021/05/21 03:10:47;;;;;;;10.68;9.57;;;;;;;;;;5015523;28;20385;-71
2021/05/21 03:13:13;;;;;;;9.88;8.88;;;;;;;;;;5015162;28;20075;-71
2021/05/21 03:15:42;;;;;;;10.25;9.18;;;;;;;;;;5015647;28;20022;-72
2021/05/21 03:18:22;;;;;;;9.68;8.70;;;;;;;;;;5016166;28;20026;-71
2021/05/21 03:20:48;;;;;;;10.02;9.02;;;;;;;;;;5015835;28;20770;-72
2021/05/21 03:23:14;;;;;;;9.82;8.93;;;;;;;;;;5016190;28;20088;-71
2021/05/21 03:25:42;;;;;;;9.98;9.07;;;;;;;;;;5016174;28;20028;-72
2021/05/21 03:28:08;;;;;;;9.02;8.13;;;;;;;;;;5015977;28;20054;-72
2021/05/21 03:30:34;;;;;;;10.80;9.20;;;;;;;;;;5015370;28;20038;-71
2021/05/21 03:33:00;;;;;;;9.80;8.90;;;;;;;;;;5015940;28;20030;-72
2021/05/21 03:35:26;;;;;;;8.52;7.60;;;;;;;;;;5015918;28;20022;-72
2021/05/21 03:37:53;;;;;;;10.63;7.90;;;;;;;;;;5016193;28;20041;-72
2021/05/21 03:40:19;;;;;;;9.30;8.40;;;;;;;;;;5015178;28;20029;-72
2021/05/21 03:42:45;;;;;;;10.57;8.27;;;;;;;;;;5015494;28;20068;-72
2021/05/21 03:45:11;;;;;;;10.10;7.95;;;;;;;;;;5015473;28;20037;-72
2021/05/21 03:47:37;;;;;;;9.45;8.55;;;;;;;;;;5015183;28;20077;-72
2021/05/21 03:50:04;;;;;;;9.07;8.18;;;;;;;;;;5014918;28;20045;-72
2021/05/21 03:52:30;;;;;;;8.48;7.57;;;;;;;;;;5015765;28;20480;-72
2021/05/21 03:54:56;;;;;;;9.65;8.75;;;;;;;;;;5015244;28;20045;-71
2021/05/21 03:57:22;;;;;;;11.88;8.52;;;;;;;;;;5014934;28;20119;-72
2021/05/21 03:59:49;;;;;;;12.38;8.07;;;;;;;;;;5015264;28;20042;-71
2021/05/21 04:02:15;;;;;;;9.02;8.13;;;;;;;;;;5014538;28;20468;-72
2021/05/21 04:04:41;;;;;;;8.90;8.10;;;;;;;;;;5014561;28;20042;-71
2021/05/21 04:07:07;;;;;;;9.52;7.88;;;;;;;;;;5014784;28;20376;-72
2021/05/21 04:09:33;;;;;;;12.45;7.53;;;;;;;;;;5015248;28;20034;-71
2021/05/21 04:11:59;;;;;;;8.35;7.55;;;;;;;;;;5014612;28;20100;-72
2021/05/21 04:14:25;;;;;;;8.70;7.90;;;;;;;;;;5015143;28;20531;-72
2021/05/21 04:16:51;;;;;;;8.95;7.57;;;;;;;;;;5014725;28;20092;-72
2021/05/21 04:19:17;;;;;;;8.70;7.85;;;;;;;;;;5014807;28;20120;-71
2021/05/21 04:21:44;;;;;;;8.63;7.72;;;;;;;;;;5014812;28;20026;-71
2021/05/21 04:24:10;;;;;;;8.57;7.78;;;;;;;;;;5014598;28;20356;-72
2021/05/21 04:26:36;;;;;;;8.25;7.53;;;;;;;;;;5014498;28;20034;-72
2021/05/21 04:29:02;;;;;;;8.25;7.45;;;;;;;;;;5014413;28;20083;-71
2021/05/21 04:31:28;;;;;;;8.20;7.40;;;;;;;;;;5014358;28;20046;-72
2021/05/21 04:33:54;;;;;;;8.27;7.13;;;;;;;;;;5014838;28;20037;-71
2021/05/21 04:36:21;;;;;;;7.68;6.93;;;;;;;;;;5014423;28;20022;-72
2021/05/21 04:38:47;;;;;;;8.48;6.85;;;;;;;;;;5014685;28;20530;-72
2021/05/21 04:41:13;;;;;;;9.15;7.35;;;;;;;;;;5014461;28;20030;-72
2021/05/21 04:43:39;;;;;;;7.50;6.65;;;;;;;;;;5014466;28;20076;-71
2021/05/21 04:46:06;;;;;;;21.13;6.93;;;;;;;;;;5013616;28;20030;-73
2021/05/21 04:48:34;;;;;;;9.10;7.15;;;;;;;;;;5014432;28;20026;-72
2021/05/21 04:51:00;;;;;;;11.18;7.45;;;;;;;;;;5014232;28;20480;-72
2021/05/21 04:53:26;;;;;;;14.80;8.02;;;;;;;;;;5014365;28;20022;-72
2021/05/21 04:55:52;;;;;;;14.30;8.25;;;;;;;;;;5014184;28;20026;-71
2021/05/21 04:58:18;;;;;;;10.73;7.65;;;;;;;;;;5013676;28;20057;-72
2021/05/21 05:00:44;;;;;;;9.25;7.15;;;;;;;;;;5013532;28;20092;-72
2021/05/21 05:03:12;;;;;;;10.10;7.50;;;;;;;;;;5013459;28;20564;-71
2021/05/21 05:05:38;;;;;;;15.75;7.15;;;;;;;;;;5014442;28;20113;-72
2021/05/21 05:08:04;;;;;;;8.15;6.65;;;;;;;;;;5013991;28;20540;-73
2021/05/21 05:10:30;;;;;;;9.85;7.05;;;;;;;;;;5013893;28;20060;-71
2021/05/21 05:12:56;;;;;;;16.38;8.63;;;;;;;;;;5013671;28;20379;-71
2021/05/21 05:15:23;;;;;;;13.70;7.28;;;;;;;;;;5013745;28;20026;-73
2021/05/21 05:17:51;;;;;;;10.25;6.18;;;;;;;;;;5013771;28;20026;-72
2021/05/21 05:20:20;;;;;;;10.45;6.53;;;;;;;;;;5013536;28;20018;-72
2021/05/21 05:22:46;;;;;;;31.08;7.97;;;;;;;;;;5013890;28;20480;-71
2021/05/21 05:25:12;;;;;;;10.90;6.85;;;;;;;;;;5012945;28;20030;-72
2021/05/21 05:27:38;;;;;;;19.42;6.57;;;;;;;;;;5013993;28;20029;-71
2021/05/21 05:30:05;;;;;;;9.50;5.88;;;;;;;;;;5012512;28;20443;-72
2021/05/21 05:32:31;;;;;;;8.10;6.00;;;;;;;;;;5013667;28;20122;-72
2021/05/21 05:34:57;;;;;;;8.77;7.00;;;;;;;;;;5012663;28;20030;-72
2021/05/21 05:37:23;;;;;;;17.45;6.80;;;;;;;;;;5013534;28;20042;-71
2021/05/21 05:39:49;;;;;;;9.13;6.53;;;;;;;;;;5013591;28;20107;-72
2021/05/21 05:42:15;;;;;;;7.55;6.53;;;;;;;;;;5012917;28;20026;-72
2021/05/21 05:44:41;;;;;;;13.55;6.88;;;;;;;;;;5013099;28;20041;-72
2021/05/21 05:47:07;;;;;;;8.13;5.97;;;;;;;;;;5013186;28;20472;-71
2021/05/21 05:49:33;;;;;;;19.67;7.00;;;;;;;;;;5013720;28;20041;-72
2021/05/21 05:51:59;;;;;;;10.23;6.43;;;;;;;;;;5013001;28;20033;-72
2021/05/21 05:54:27;;;;;;;13.40;6.75;;;;;;;;;;5012794;28;20160;-71
2021/05/21 05:56:54;;;;;;;18.65;6.50;;;;;;;;;;5013286;28;20025;-71
2021/05/21 05:59:20;;;;;;;11.93;5.70;;;;;;;;;;5013462;28;20032;-72
2021/05/21 06:01:46;;;;;;;12.15;6.82;;;;;;;;;;5013257;28;20022;-72
2021/05/21 06:04:12;;;;;;;9.05;5.70;;;;;;;;;;5013140;28;20101;-72
2021/05/21 06:06:38;;;;;;;17.83;6.38;;;;;;;;;;5013418;28;20022;-72
2021/05/21 06:09:06;;;;;;;9.20;6.00;;;;;;;;;;5013416;28;20030;-72
2021/05/21 06:11:32;;;;;;;13.13;6.25;;;;;;;;;;5012958;28;20057;-72
2021/05/21 06:13:58;;;;;;;17.45;7.72;;;;;;;;;;5012356;28;20022;-73
2021/05/21 06:16:24;;;;;;;9.30;6.15;;;;;;;;;;5013193;28;20034;-72
2021/05/21 06:18:51;;;;;;;16.02;6.10;;;;;;;;;;5013698;28;20034;-72
2021/05/21 06:21:17;;;;;;;8.48;5.22;;;;;;;;;;5012875;28;20030;-72
2021/05/21 06:23:44;;;;;;;7.40;5.95;;;;;;;;;;5013252;28;20160;-72
2021/05/21 06:26:16;;;;;;;11.63;7.07;;;;;;;;;;5012811;28;20045;-72
2021/05/21 06:28:42;;;;;;;23.70;7.90;;;;;;;;;;5012891;28;20084;-73
2021/05/21 06:31:08;;;;;;;24.13;7.28;;;;;;;;;;5012941;28;20038;-73
2021/05/21 06:33:34;;;;;;;19.58;7.50;;;;;;;;;;5013180;28;20030;-72
2021/05/21 06:36:00;;;;;;;14.60;6.85;;;;;;;;;;5012248;28;20026;-72
2021/05/21 06:38:26;;;;;;;11.82;7.18;;;;;;;;;;5012130;28;20488;-72
2021/05/21 06:40:53;;;;;;;7.70;6.65;;;;;;;;;;5012533;28;20041;-72
2021/05/21 06:43:20;;;;;;;16.75;6.93;;;;;;;;;;5012872;28;20030;-73
2021/05/21 06:45:46;;;;;;;14.93;6.28;;;;;;;;;;5013449;28;20022;-72
2021/05/21 06:48:12;;;;;;;10.55;5.68;;;;;;;;;;5016232;28;20030;-73
2021/05/21 06:50:38;;;;;;;9.70;5.57;;;;;;;;;;5016334;28;20095;-73
2021/05/21 06:53:04;;;;;;;9.73;5.90;;;;;;;;;;5016380;28;20407;-73
2021/05/21 06:55:31;;;;;;;8.90;5.40;;;;;;;;;;5016459;28;20022;-74
2021/05/21 06:57:57;;;;;;;12.13;5.63;;;;;;;;;;5016145;28;20030;-76
2021/05/21 07:00:23;;;;;;;13.15;5.53;;;;;;;;;;5015860;28;20033;-73
2021/05/21 07:02:49;;;;;;;18.30;6.63;;;;;;;;;;5016412;28;20105;-73
2021/05/21 07:05:15;;;;;;;19.13;8.38;;;;;;;;;;5013777;28;20064;-73
2021/05/21 07:07:41;;;;;;;10.55;7.45;;;;;;;;;;5016123;28;20109;-73
2021/05/21 07:10:08;;;;;;;10.57;5.82;;;;;;;;;;5015805;28;20399;-73
2021/05/21 07:12:34;;;;;;;7.15;5.30;;;;;;;;;;5015856;28;20037;-73
2021/05/21 07:15:00;;;;;;;10.48;6.78;;;;;;;;;;5016167;28;20033;-72
2021/05/21 07:17:26;;;;;;;9.48;6.43;;;;;;;;;;5011570;28;20041;-73
2021/05/21 07:19:53;;;;;;;20.10;6.55;;;;;;;;;;5016338;28;20029;-73
2021/05/21 07:22:19;;;;;;;13.77;7.82;;;;;;;;;;5015058;28;20058;-74
2021/05/21 07:24:45;;;;;;;12.00;7.10;;;;;;;;;;5015406;28;20080;-72
2021/05/21 07:27:11;;;;;;;15.68;6.35;;;;;;;;;;5013873;28;20540;-74
2021/05/21 07:29:37;;;;;;;14.52;6.88;;;;;;;;;;5015140;28;20034;-73
2021/05/21 07:32:03;;;;;;;15.65;6.15;;;;;;;;;;5015573;28;20038;-71
2021/05/21 07:34:29;;;;;;;14.73;6.50;;;;;;;;;;5015464;28;20022;-73
2021/05/21 07:36:55;;;;;;;8.10;5.40;;;;;;;;;;5016350;28;20080;-72
2021/05/21 07:39:21;;;;;;;12.93;6.22;;;;;;;;;;5015462;28;20183;-73
2021/05/21 07:41:47;;;;;;;6.90;5.22;;;;;;;;;;5015914;28;20033;-73
2021/05/21 07:44:15;;;;;;;10.85;4.47;;;;;;;;;;5016161;28;20133;-73
2021/05/21 07:46:41;;;;;;;8.50;5.43;;;;;;;;;;5015337;28;20418;-72
2021/05/21 07:49:07;;;;;;;11.45;4.60;;;;;;;;;;5016604;28;20400;-73
2021/05/21 07:51:34;;;;;;;9.13;4.10;;;;;;;;;;5015315;28;20034;-73
2021/05/21 07:54:00;;;;;;;5.45;3.10;;;;;;;;;;5015318;28;20431;-73
2021/05/21 07:56:26;;;;;;;6.35;4.10;;;;;;;;;;5016436;28;20026;-76
2021/05/21 07:58:52;;;;;;;6.95;3.92;;;;;;;;;;5015693;28;20042;-73
2021/05/21 08:01:18;;;;;;;3.65;3.35;;;;;;;;;;5015583;28;20033;-74
2021/05/21 08:03:44;;;;;;;6.38;2.92;;;;;;;;;;5019576;28;20061;-73
2021/05/21 08:06:10;;;;;;;3.50;2.72;;;;;;;;;;5035396;28;20021;-73
2021/05/21 08:08:36;;;;;;;5.05;2.78;;;;;;;;;;5034950;28;20366;-73
2021/05/21 08:11:02;;;;;;;9.38;2.78;;;;;;;;;;5034598;28;20033;-73
2021/05/21 08:13:28;;;;;;;11.15;2.75;;;;;;;;;;5034547;28;20025;-76
2021/05/21 08:15:55;;;;;;;15.63;2.90;;;;;;;;;;5035554;28;20033;-73
2021/05/21 08:18:21;;;;;;;7.28;3.03;;;;;;;;;;5034474;28;20060;-73
2021/05/21 08:20:48;;;;;;;5.63;2.75;;;;;;;;;;5034907;28;20049;-73
2021/05/21 08:23:15;;;;;;;2.30;2.10;;;;;;;;;;5035253;28;20353;-73
2021/05/21 08:25:41;;;;;;;5.88;2.58;;;;;;;;;;5034062;28;20032;-74
2021/05/21 08:28:07;;;;;;;2.75;2.42;;;;;;;;;;5027087;28;20749;-73
2021/05/21 08:30:33;;;;;;;3.72;2.65;;;;;;;;;;5014544;28;20052;-73
2021/05/21 08:32:59;;;;;;;10.75;2.70;;;;;;;;;;5016015;28;20072;-73
2021/05/21 08:35:26;;;;;;;9.77;2.72;;;;;;;;;;5013885;28;20028;-73
2021/05/21 08:37:53;;;;;;;8.32;3.15;;;;;;;;;;5014577;28;20026;-73
2021/05/21 08:43:06;;;;;;;3.42;2.42;;;;;;;;;;5000173;28;20034;-71
2021/05/21 08:45:33;;;;;;;3.25;2.63;;;;;;;;;;5014617;28;20132;-71
2021/05/21 08:47:59;;;;;;;5.85;2.63;;;;;;;;;;5014930;28;20113;-72
2021/05/21 08:50:25;;;;;;;8.93;2.90;;;;;;;;;;5014884;28;20483;-70
2021/05/21 08:52:51;;;;;;;4.80;2.42;;;;;;;;;;5013838;28;20471;-71
2021/05/21 08:55:17;;;;;;;4.90;2.15;;;;;;;;;;5014630;28;20029;-72
2021/05/21 08:57:44;;;;;;;3.22;2.15;;;;;;;;;;5014074;28;20084;-71
2021/05/21 09:00:10;;;;;;;12.25;2.47;;;;;;;;;;5014009;28;20083;-73
2021/05/21 09:02:37;;;;;;;7.25;2.47;;;;;;;;;;5012893;28;20037;-73
2021/05/21 09:05:04;;;;;;;4.18;2.28;;;;;;;;;;5013669;28;20100;-72
2021/05/21 09:07:32;;;;;;;4.78;2.83;;;;;;;;;;5013580;28;20455;-72
2021/05/21 09:09:58;;;;;;;6.18;2.30;;;;;;;;;;5013744;28;20070;-76
2021/05/21 09:12:25;;;;;;;4.50;2.30;;;;;;;;;;5013985;28;20030;-72
2021/05/21 09:15:08;;;;;;;3.30;2.22;;;;;;;;;;5013818;28;20080;-71
2021/05/21 09:17:34;;;;;;;4.05;2.15;;;;;;;;;;5014105;28;20110;-71
2021/05/21 09:20:00;;;;;;;2.90;2.20;;;;;;;;;;5012852;28;20026;-71
2021/05/21 09:22:26;;;;;;;15.55;3.45;;;;;;;;;;5013946;28;20404;-72
2021/05/21 09:24:53;;;;;;;5.00;2.45;;;;;;;;;;5013544;28;20129;-71
2021/05/21 09:27:20;;;;;;;10.82;4.80;;;;;;;;;;5014445;28;20022;-72
2021/05/21 09:29:56;;;;;;;10.80;4.20;;;;;;;;;;5013555;28;20030;-72
2021/05/21 09:32:24;;;;;;;5.82;4.22;;;;;;;;;;5013843;28;20021;-72
2021/05/21 09:35:11;;;;;;;15.13;5.18;;;;;;;;;;5013316;28;20033;-72
2021/05/21 09:37:41;;;;;;;9.85;5.13;;;;;;;;;;5012113;28;20498;-72
2021/05/21 09:40:09;;;;;;;8.40;4.07;;;;;;;;;;5013320;28;20038;-72
2021/05/21 09:42:54;;;;;;;6.55;4.35;;;;;;;;;;5013261;28;20057;-71
2021/05/21 09:45:36;;;;;;;12.68;4.38;;;;;;;;;;4992596;28;20030;-70
2021/05/21 09:48:03;;;;;;;;;;;;;;;;;;4994326;28;20026;-71
2021/05/21 09:50:30;;;;;;;6.32;3.78;;;;;;;;;;4991254;28;20364;-73
2021/05/21 09:53:00;;;;;;;7.32;4.13;;;;;;;;;;4993956;28;20026;-72
2021/05/21 09:55:29;;;;;;;8.48;4.13;;;;;;;;;;4993718;28;20034;-70
2021/05/21 09:57:55;;;;;;;8.70;4.15;;;;;;;;;;4993930;28;20122;-71
2021/05/21 10:00:22;;;;;;;6.10;3.85;;;;;;;;;;4993737;28;20496;-69
2021/05/21 10:02:48;;;;;;;10.55;4.43;;;;;;;;;;4993957;28;20117;-71
2021/05/21 10:05:14;;;;;;;7.15;3.20;;;;;;;;;;4993589;28;20061;-73
2021/05/21 10:07:42;;;;;;;7.05;3.00;;;;;;;;;;4993413;28;20378;-73
2021/05/21 10:10:08;;;;;;;5.45;2.35;;;;;;;;;;4992999;28;20514;-73
2021/05/21 10:12:34;;;;;;;13.18;2.35;;;;;;;;;;4993283;28;20027;-73
2021/05/21 10:15:00;;;;;;;5.13;2.03;;;;;;;;;;4993992;28;20487;-72
2021/05/21 10:17:28;;;;;;;5.30;1.58;;;;;;;;;;4993800;28;20030;-73
2021/05/21 10:19:54;;;;;;;4.35;1.77;;;;;;;;;;4993415;28;20354;-72
2021/05/21 10:22:23;;;;;;;6.68;2.00;;;;;;;;;;4996271;28;20023;-72
2021/05/21 10:24:49;;;;;;;12.52;2.00;;;;;;;;;;4997084;28;20409;-74
2021/05/21 10:27:18;;;;;;;3.92;1.98;;;;;;;;;;4997268;28;20093;-73
2021/05/21 10:29:48;;;;;;;3.95;1.50;;;;;;;;;;4997273;28;20499;-71
2021/05/21 10:32:16;;;;;;;4.32;1.15;;;;;;;;;;4996693;28;20361;-72
2021/05/21 10:34:42;;;;;;;13.60;1.90;;;;;;;;;;4997467;28;20089;-73
2021/05/21 10:37:19;;;;;;;2.42;1.35;;;;;;;;;;4997007;28;20027;-72
2021/05/21 10:39:58;;;;;;;5.05;1.90;;;;;;;;;;4997167;28;20080;-72
2021/05/21 10:42:24;;;;;;;5.57;1.50;;;;;;;;;;4996783;28;20023;-72
2021/05/21 10:44:51;;;;;;;1.63;1.40;;;;;;;;;;4996599;28;20358;-74
2021/05/21 10:47:21;;;;;;;2.85;1.73;;;;;;;;;;4997018;28;20026;-73
2021/05/21 10:50:07;;;;;;;13.60;1.77;;;;;;;;;;4997210;28;20081;-72
2021/05/21 10:52:53;;;;;;;4.47;1.90;;;;;;;;;;4996244;28;21010;-72
2021/05/21 10:55:20;;;;;;;6.60;1.88;;;;;;;;;;4995679;28;20027;-72
2021/05/21 10:58:01;;;;;;;6.78;1.98;;;;;;;;;;4997118;28;20054;-72
2021/05/21 11:00:27;;;;;;;12.00;1.88;;;;;;;;;;4996561;28;20037;-72
2021/05/21 11:02:54;;;;;;;6.72;2.08;;;;;;;;;;4997583;28;20057;-72
2021/05/21 11:05:24;;;;;;;4.65;1.83;;;;;;;;;;4996593;28;20057;-71
2021/05/21 11:07:54;;;;;;;2.35;1.58;;;;;;;;;;4996724;28;20034;-72
2021/05/21 11:10:41;;;;;;;5.85;1.70;;;;;;;;;;4996050;28;20073;-72
2021/05/21 11:13:10;;;;;;;11.65;1.70;;;;;;;;;;4995211;28;20022;-72
2021/05/21 11:15:37;;;;;;;5.25;1.48;;;;;;;;;;4996509;28;20092;-71
2021/05/21 11:18:11;;;;;;;1.30;1.20;;;;;;;;;;4996594;28;20037;-71
2021/05/21 11:20:57;;;;;;;9.45;1.63;;;;;;;;;;4996650;28;20109;-71
2021/05/21 11:23:24;;;;;;;2.10;1.60;;;;;;;;;;4995137;28;20089;-73
2021/05/21 11:26:12;;;;;;;2.75;1.35;;;;;;;;;;4996429;28;20034;-72
2021/05/21 11:28:39;;;;;;;12.07;1.73;;;;;;;;;;4995559;28;20472;-72
2021/05/21 11:31:07;;;;;;;2.63;1.15;;;;;;;;;;4995931;28;20102;-72
2021/05/21 11:33:33;;;;;;;10.73;2.05;;;;;;;;;;4994940;28;20056;-72
2021/05/21 11:35:59;;;;;;;3.45;1.65;;;;;;;;;;4996355;28;20026;-73
2021/05/21 11:38:25;;;;;;;4.80;1.55;;;;;;;;;;4996629;28;20034;-72
2021/05/21 11:40:52;;;;;;;1.60;1.30;;;;;;;;;;4995839;28;20022;-72
2021/05/21 11:43:26;;;;;;;5.88;1.70;;;;;;;;;;4996521;28;20030;-72
2021/05/21 11:45:52;;;;;;;1.30;1.20;;;;;;;;;;4996045;28;20503;-72
2021/05/21 11:48:34;;;;;;;2.65;1.50;;;;;;;;;;5002812;28;20525;-73
2021/05/21 11:51:01;;;;;;;5.68;1.60;;;;;;;;;;5014642;28;20038;-72
2021/05/21 11:53:27;;;;;;;11.02;1.67;;;;;;;;;;5013667;28;20022;-72
2021/05/21 11:55:53;;;;;;;3.65;1.42;;;;;;;;;;5014788;28;20037;-71
2021/05/21 11:58:23;;;;;;;7.82;3.17;;;;;;;;;;5014920;28;20475;-71
2021/05/21 12:00:50;;;;;;;6.20;2.30;;;;;;;;;;5015051;28;20065;-71
2021/05/21 12:03:18;;;;;;;7.43;1.70;;;;;;;;;;5016753;28;20022;-73
2021/05/21 12:05:45;;;;;;;13.93;1.95;;;;;;;;;;5013452;28;20053;-72
2021/05/21 12:08:11;;;;;;;1.65;1.52;;;;;;;;;;5014802;28;20030;-71
2021/05/21 12:10:37;;;;;;;9.23;1.73;;;;;;;;;;5015190;28;20030;-71
2021/05/21 12:13:07;;;;;;;4.80;1.27;;;;;;;;;;5013911;28;20087;-71
2021/05/21 12:15:33;;;;;;;6.72;1.38;;;;;;;;;;5014679;28;20579;-73
2021/05/21 12:17:59;;;;;;;1.98;1.60;;;;;;;;;;5014713;28;20034;-73
2021/05/21 12:20:25;;;;;;;2.50;1.30;;;;;;;;;;5014813;28;20022;-72
2021/05/21 12:22:59;;;;;;;2.00;1.13;;;;;;;;;;5013301;28;20618;-69
2021/05/21 12:25:27;;;;;;;4.07;1.38;;;;;;;;;;5014707;28;20121;-70
2021/05/21 12:27:53;;;;;;;2.60;1.30;;;;;;;;;;5014742;28;20022;-70
2021/05/21 12:30:19;;;;;;;2.03;1.50;;;;;;;;;;5014375;28;20545;-71
2021/05/21 12:32:45;;;;;;;3.60;1.48;;;;;;;;;;5013537;28;20030;-73
2021/05/21 12:35:12;;;;;;;2.90;1.50;;;;;;;;;;5014458;28;20026;-72
2021/05/21 12:37:46;;;;;;;1.98;1.55;;;;;;;;;;5014674;28;20026;-73
2021/05/21 12:40:12;;;;;;;1.60;1.50;;;;;;;;;;5013845;28;20037;-72
2021/05/21 12:42:54;;;;;;;3.38;1.83;;;;;;;;;;5013254;28;20092;-72
2021/05/21 12:45:20;;;;;;;2.20;1.42;;;;;;;;;;5014092;28;20046;-72
2021/05/21 12:47:47;;;;;;;4.80;1.70;;;;;;;;;;5014309;28;20485;-71
2021/05/21 12:50:14;;;;;;;4.70;1.60;;;;;;;;;;5014256;28;20038;-71
2021/05/21 12:52:56;;;;;;;5.75;1.75;;;;;;;;;;5012910;28;20022;-73
2021/05/21 12:55:22;;;;;;;2.70;1.50;;;;;;;;;;5014410;28;20022;-73
2021/05/21 12:57:48;;;;;;;5.53;1.50;;;;;;;;;;5014147;28;20048;-73
2021/05/21 13:00:18;;;;;;;1.50;1.40;;;;;;;;;;5013801;28;20055;-72
2021/05/21 13:02:49;;;;;;;2.47;1.35;;;;;;;;;;5013266;28;20112;-73
2021/05/21 13:05:15;;;;;;;4.43;1.52;;;;;;;;;;5013675;28;20119;-75
2021/05/21 13:07:42;;;;;;;8.27;1.55;;;;;;;;;;5014089;28;20026;-73
2021/05/21 13:10:09;;;;;;;1.73;1.38;;;;;;;;;;5013072;28;20045;-73
2021/05/21 13:12:40;;;;;;;6.63;1.65;;;;;;;;;;5011929;28;20033;-74
2021/05/21 13:15:10;;;;;;;3.93;1.60;;;;;;;;;;5014665;28;20034;-73
2021/05/21 13:17:37;;;;;;;7.43;1.60;;;;;;;;;;5013813;28;20030;-74
2021/05/21 13:20:04;;;;;;;2.83;1.77;;;;;;;;;;5013732;28;20034;-73
2021/05/21 13:22:32;;;;;;;1.95;1.13;;;;;;;;;;5012382;28;20053;-73
2021/05/21 13:25:00;;;;;;;11.85;1.48;;;;;;;;;;5014415;28;20022;-74
2021/05/21 13:27:27;;;;;;;3.20;1.60;;;;;;;;;;5013961;28;20450;-73
2021/05/21 13:29:53;;;;;;;9.00;1.95;;;;;;;;;;5013182;28;20040;-73
2021/05/21 13:32:20;;;;;;;2.00;1.40;;;;;;;;;;5011435;28;20101;-74
2021/05/21 13:34:47;;;;;;;4.60;1.50;;;;;;;;;;5013979;28;20060;-73
2021/05/21 13:37:13;;;;;;;3.58;1.27;;;;;;;;;;5013595;28;20126;-73
2021/05/21 13:39:39;;;;;;;5.05;1.45;;;;;;;;;;5013345;28;20036;-73
2021/05/21 13:42:05;;;;;;;2.08;1.33;;;;;;;;;;5011268;28;20036;-73
2021/05/21 13:44:31;;;;;;;3.75;2.00;;;;;;;;;;5014757;28;20033;-75
2021/05/21 13:46:57;;;;;;;3.88;1.45;;;;;;;;;;5014373;28;20022;-73
2021/05/21 13:49:24;;;;;;;8.20;2.40;;;;;;;;;;5012956;28;20034;-73
2021/05/21 13:51:50;;;;;;;5.03;1.60;;;;;;;;;;5013858;28;20061;-73
2021/05/21 13:54:17;;;;;;;4.07;1.88;;;;;;;;;;5013433;28;20034;-73
2021/05/21 13:56:43;;;;;;;2.58;1.88;;;;;;;;;;5011331;28;20177;-76
2021/05/21 13:59:09;;;;;;;4.30;1.50;;;;;;;;;;4994165;28;20499;-74
2021/05/21 14:01:35;;;;;;;4.65;2.08;;;;;;;;;;4995882;28;20472;-75
2021/05/21 14:04:01;;;;;;;7.88;2.40;;;;;;;;;;5000301;28;20104;-72
2021/05/21 14:06:28;;;;;;;5.32;1.98;;;;;;;;;;5013809;28;20022;-73
2021/05/21 14:08:55;;;;;;;3.00;2.03;;;;;;;;;;5015066;28;20038;-73
2021/05/21 14:11:21;;;;;;;7.50;1.33;;;;;;;;;;5014737;28;20092;-74
2021/05/21 14:13:47;;;;;;;11.75;2.05;;;;;;;;;;5014988;28;20030;-72
2021/05/21 14:16:13;;;;;;;5.72;1.55;;;;;;;;;;5012800;28;20057;-72
2021/05/21 14:18:39;;;;;;;4.18;1.70;;;;;;;;;;5012547;28;20026;-73
2021/05/21 14:21:05;;;;;;;2.50;1.73;;;;;;;;;;5013283;28;20022;-73
2021/05/21 14:23:31;;;;;;;2.55;1.42;;;;;;;;;;5013008;28;20105;-72
2021/05/21 14:25:58;;;;;;;3.22;1.33;;;;;;;;;;5013067;28;20468;-72
2021/05/21 14:28:24;;;;;;;2.33;1.40;;;;;;;;;;5013358;28;20087;-70
2021/05/21 14:30:50;;;;;;;2.50;1.77;;;;;;;;;;5012181;28;20125;-71
2021/05/21 14:33:17;;;;;;;2.28;1.73;;;;;;;;;;5012570;28;20475;-72
2021/05/21 14:35:43;;;;;;;2.45;1.50;;;;;;;;;;5012502;28;20468;-71
2021/05/21 14:38:09;;;;;;;4.38;1.73;;;;;;;;;;5012252;28;20032;-72